createdAt,value
2019-04-11T00:00:57.731Z,95984.80
2019-04-11T00:03:25.401Z,95986.17
2019-04-11T00:05:53.300Z,95989.27
2019-04-11T00:08:21.715Z,95988.30
2019-04-11T00:10:49.488Z,95989.63
2019-04-11T00:13:23.837Z,95990.16
2019-04-11T00:15:46.736Z,95988.39
2019-04-11T00:18:14.616Z,95989.93
2019-04-11T00:20:42.461Z,95992.22
2019-04-11T00:23:12.114Z,95990.33
2019-04-11T00:25:39.984Z,95989.02
2019-04-11T00:28:07.875Z,95993.77
2019-04-11T00:30:36.522Z,95989.59
2019-04-11T00:33:05.718Z,95993.52
2019-04-11T00:35:33.602Z,95990.75
2019-04-11T00:38:01.483Z,95994.02
2019-04-11T00:40:29.161Z,95995.34
2019-04-11T00:42:56.790Z,95997.12
2019-04-11T00:45:25.470Z,95994.64
2019-04-11T00:47:53.558Z,95987.05
2019-04-11T00:50:21.516Z,95995.14
2019-04-11T00:52:49.614Z,95997.03
2019-04-11T00:55:17.842Z,95994.35
2019-04-11T00:57:45.961Z,96001.42
2019-04-11T01:00:13.658Z,95994.20
2019-04-11T01:02:43.278Z,96004.08
2019-04-11T01:05:11.639Z,96001.54
2019-04-11T01:07:40.860Z,96005.75
2019-04-11T01:10:09.805Z,96002.59
2019-04-11T01:12:37.859Z,96005.46
2019-04-11T01:15:07.099Z,96012.30
2019-04-11T01:17:35.023Z,96012.67
2019-04-11T01:20:03.487Z,96019.30
2019-04-11T01:22:31.986Z,96028.52
2019-04-11T01:24:59.974Z,96029.52
2019-04-11T01:27:27.799Z,96035.75
2019-04-11T01:29:55.705Z,96039.92
2019-04-11T01:32:24.435Z,96041.41
2019-04-11T01:34:52.966Z,96035.86
2019-04-11T01:37:21.765Z,96037.09
2019-04-11T01:40:01.258Z,96043.75
2019-04-11T01:42:29.872Z,96054.50
2019-04-11T01:44:57.571Z,96050.58
2019-04-11T01:47:37.513Z,96058.67
2019-04-11T01:50:05.140Z,96051.17
2019-04-11T01:52:32.498Z,96054.31
2019-04-11T01:55:00.105Z,96056.55
2019-04-11T01:57:27.814Z,96061.20
2019-04-11T01:59:56.560Z,96065.03
2019-04-11T02:02:39.015Z,96062.55
2019-04-11T02:05:16.702Z,96063.17
2019-04-11T02:07:44.878Z,96061.55
2019-04-11T02:10:12.736Z,96062.75
2019-04-11T02:12:41.440Z,96054.56
2019-04-11T02:15:10.272Z,96063.94
2019-04-11T02:17:39.031Z,96064.77
2019-04-11T02:20:09.019Z,96062.88
2019-04-11T02:23:05.013Z,96068.09
2019-04-11T02:25:54.785Z,96067.87
2019-04-11T02:28:24.420Z,96075.48
2019-04-11T02:30:55.722Z,96080.34
2019-04-11T02:33:25.769Z,96074.42
2019-04-11T02:35:54.248Z,96079.88
2019-04-11T02:38:23.764Z,96078.67
2019-04-11T02:40:52.580Z,96081.77
2019-04-11T02:43:20.619Z,96081.41
2019-04-11T02:46:00.072Z,96085.45
2019-04-11T02:48:20.420Z,96085.10
2019-04-11T02:50:50.208Z,96089.71
2019-04-11T02:53:21.266Z,96091.50
2019-04-11T02:55:49.721Z,96082.59
2019-04-11T02:58:20.439Z,96090.91
2019-04-11T03:00:49.996Z,96091.03
2019-04-11T03:03:17.917Z,96089.59
2019-04-11T03:05:47.073Z,96094.82
2019-04-11T03:08:18.927Z,96089.97
2019-04-11T03:10:45.448Z,96097.68
2019-04-11T03:13:13.554Z,96098.98
2019-04-11T03:15:56.814Z,96101.73
2019-04-11T03:18:18.555Z,96101.73
2019-04-11T03:20:47.513Z,96110.74
2019-04-11T03:23:13.829Z,96110.72
2019-04-11T03:25:40.602Z,96108.59
2019-04-11T03:28:14.044Z,96112.16
2019-04-11T03:30:59.236Z,96111.11
2019-04-11T03:38:29.711Z,96112.05
2019-04-11T03:40:59.514Z,96110.76
2019-04-11T03:43:23.208Z,96113.96
2019-04-11T03:46:01.430Z,96110.64
2019-04-11T03:48:23.627Z,96103.97
2019-04-11T03:50:39.294Z,96109.80
2019-04-11T03:53:10.508Z,96103.98
2019-04-11T03:55:37.144Z,96111.83
2019-04-11T03:58:06.178Z,96110.03
2019-04-11T04:00:38.699Z,96108.14
2019-04-11T04:03:06.355Z,96111.92
2019-04-11T04:05:36.602Z,96112.06
2019-04-11T04:08:04.586Z,96107.66
2019-04-11T04:10:36.194Z,96110.27
2019-04-11T04:13:05.447Z,96111.00
2019-04-11T04:16:15.321Z,96117.63
2019-04-11T04:18:56.487Z,96122.16
2019-04-11T04:21:49.071Z,96125.60
2019-04-11T04:24:31.913Z,96131.05
2019-04-11T04:27:00.954Z,96129.14
2019-04-11T04:29:29.116Z,96131.52
2019-04-11T04:31:57.329Z,96137.13
2019-04-11T04:34:26.008Z,96142.35
2019-04-11T04:36:55.566Z,96144.48
2019-04-11T04:39:27.095Z,96145.30
2019-04-11T04:42:05.921Z,96146.50
2019-04-11T04:44:26.609Z,96145.30
2019-04-11T04:47:10.217Z,96153.13
2019-04-11T04:49:28.204Z,96153.37
2019-04-11T04:51:56.248Z,96159.31
2019-04-11T04:54:24.195Z,96152.92
2019-04-11T04:56:54.647Z,96158.97
2019-04-11T04:59:24.418Z,96156.94
2019-04-11T05:01:53.241Z,96156.84
2019-04-11T05:04:23.229Z,96162.41
2019-04-11T05:06:52.864Z,96158.02
2019-04-11T05:09:21.313Z,96163.11
2019-04-11T05:11:50.680Z,96165.38
2019-04-11T05:14:18.902Z,96164.55
2019-04-11T05:16:48.220Z,96163.23
2019-04-11T05:19:17.051Z,96164.55
2019-04-11T05:21:45.665Z,96165.02
2019-04-11T05:24:14.592Z,96169.30
2019-04-11T05:26:43.955Z,96172.03
2019-04-11T05:29:13.590Z,96168.81
2019-04-11T05:31:41.155Z,96165.84
2019-04-11T05:34:09.826Z,96176.32
2019-04-11T05:36:38.718Z,96178.08
2019-04-11T05:39:07.188Z,96179.86
2019-04-11T05:41:34.841Z,96178.93
2019-04-11T05:44:07.708Z,96181.16
2019-04-11T05:46:45.699Z,96175.84
2019-04-11T05:49:32.564Z,96181.64
2019-04-11T05:52:06.185Z,96179.16
2019-04-11T05:54:43.098Z,96174.42
2019-04-11T05:57:11.586Z,96177.86
2019-04-11T05:59:41.209Z,96178.66
2019-04-11T06:02:31.483Z,96181.50
2019-04-11T06:05:06.757Z,96180.58
2019-04-11T06:07:47.787Z,96177.14
2019-04-11T06:10:18.168Z,96189.50
2019-04-11T06:13:16.927Z,96185.93
2019-04-11T06:15:49.175Z,96184.63
2019-04-11T06:18:37.430Z,96184.97
2019-04-11T06:21:09.588Z,96195.56
2019-04-11T06:24:12.133Z,96195.92
2019-04-11T06:26:45.313Z,96194.86
2019-04-11T06:29:24.383Z,96190.45
2019-04-11T06:32:00.237Z,96199.38
2019-04-11T06:34:28.722Z,96198.30
2019-04-11T06:37:14.665Z,96196.63
2019-04-11T06:39:51.607Z,96198.06
2019-04-11T06:42:37.275Z,96202.82
2019-04-11T06:45:23.789Z,96209.36
2019-04-11T06:48:11.562Z,96203.28
2019-04-11T06:50:47.252Z,96202.69
2019-04-11T06:53:19.025Z,96203.52
2019-04-11T06:56:04.437Z,96209.11
2019-04-11T06:58:37.288Z,96209.36
2019-04-11T07:01:12.431Z,96208.05
2019-04-11T07:03:46.915Z,96209.84
2019-04-11T07:06:21.754Z,96214.10
2019-04-11T07:08:57.497Z,96212.20
2019-04-11T07:11:36.272Z,96212.31
2019-04-11T07:14:14.847Z,96215.14
2019-04-11T07:17:06.969Z,96213.01
2019-04-11T07:19:51.535Z,96221.71
2019-04-11T07:22:37.465Z,96229.56
2019-04-11T07:25:23.587Z,96228.50
2019-04-11T07:28:03.750Z,96230.52
2019-04-11T07:30:56.578Z,96236.59
2019-04-11T07:33:53.988Z,96242.41
2019-04-11T07:36:41.238Z,96234.93
2019-04-11T07:39:24.612Z,96238.38
2019-04-11T07:42:26.070Z,96238.24
2019-04-11T07:44:57.618Z,96235.63
2019-04-11T07:47:37.255Z,96246.20
2019-04-11T07:50:05.852Z,96249.19
2019-04-11T07:52:40.508Z,96252.15
2019-04-11T07:55:10.987Z,96249.53
2019-04-11T07:57:46.889Z,96249.08
2019-04-11T08:00:46.112Z,96258.34
2019-04-11T08:03:40.821Z,96257.63
2019-04-11T08:06:22.220Z,96256.09
2019-04-11T08:09:09.729Z,96252.88
2019-04-11T08:12:00.326Z,96261.02
2019-04-11T08:14:47.541Z,96265.29
2019-04-11T08:17:28.038Z,96255.78
2019-04-11T08:20:25.645Z,96258.58
2019-04-11T08:22:59.129Z,96264.70
2019-04-11T08:26:04.243Z,96266.75
2019-04-11T08:28:33.952Z,96272.36
2019-04-11T08:31:26.634Z,96268.96
2019-04-11T08:33:59.268Z,96268.27
2019-04-11T08:36:44.133Z,96269.05
2019-04-11T08:39:21.396Z,96262.50
2019-04-11T08:42:09.462Z,96272.92
2019-04-11T08:44:39.674Z,96269.39
2019-04-11T08:47:11.955Z,96271.50
2019-04-11T08:49:41.861Z,96273.58
2019-04-11T08:52:48.581Z,96273.42
2019-04-11T08:55:21.027Z,96267.63
2019-04-11T08:58:12.048Z,96275.11
2019-04-11T09:00:49.002Z,96270.24
2019-04-11T09:03:35.029Z,96270.79
2019-04-11T09:06:08.525Z,96275.42
2019-04-11T09:08:58.814Z,96276.23
2019-04-11T09:11:47.106Z,96282.17
2019-04-11T09:14:44.607Z,96278.07
2019-04-11T09:17:19.406Z,96272.43
2019-04-11T09:20:13.580Z,96278.33
2019-04-11T09:22:53.360Z,96281.78
2019-04-11T09:25:39.089Z,96281.31
2019-04-11T09:28:32.068Z,96287.65
2019-04-11T09:31:31.873Z,96292.08
2019-04-11T09:34:18.254Z,96297.39
2019-04-11T09:36:59.576Z,96294.85
2019-04-11T09:39:53.206Z,96291.85
2019-04-11T09:42:53.366Z,96300.98
2019-04-11T09:45:43.877Z,96297.23
2019-04-11T09:48:44.393Z,96302.17
2019-04-11T09:51:35.994Z,96291.73
2019-04-11T09:54:17.567Z,96296.27
2019-04-11T09:57:08.226Z,96299.64
2019-04-11T09:59:51.897Z,96291.47
2019-04-11T10:02:54.481Z,96302.49
2019-04-11T10:05:30.329Z,96292.52
2019-04-11T10:08:26.617Z,96299.87
2019-04-11T10:11:30.353Z,96300.73
2019-04-11T10:14:07.306Z,96298.68
2019-04-11T10:16:53.128Z,96300.12
2019-04-11T10:19:24.820Z,96300.24
2019-04-11T10:22:00.788Z,96305.22
2019-04-11T10:24:48.439Z,96302.59
2019-04-11T10:27:36.378Z,96302.27
2019-04-11T10:30:24.042Z,96304.47
2019-04-11T10:32:55.258Z,96305.41
2019-04-11T10:35:51.510Z,96303.22
2019-04-11T10:38:20.392Z,96306.99
2019-04-11T10:41:14.484Z,96300.47
2019-04-11T10:43:44.660Z,96308.69
2019-04-11T10:46:31.684Z,96306.34
2019-04-11T10:49:05.819Z,96305.81
2019-04-11T10:51:49.795Z,96312.88
2019-04-11T10:54:18.350Z,96313.17
2019-04-11T10:57:11.817Z,96306.63
2019-04-11T10:59:42.796Z,96301.19
2019-04-11T11:02:25.837Z,96307.98
2019-04-11T11:04:54.978Z,96305.37
2019-04-11T11:07:26.660Z,96310.29
2019-04-11T11:10:03.047Z,96311.29
2019-04-11T11:12:59.540Z,96322.13
2019-04-11T11:15:33.822Z,96326.90
2019-04-11T11:18:48.074Z,96319.93
2019-04-11T11:21:07.394Z,96317.95
2019-04-11T11:23:54.417Z,96313.18
2019-04-11T11:26:27.935Z,96316.41
2019-04-11T11:29:17.057Z,96314.20
2019-04-11T11:31:56.547Z,96315.66
2019-04-11T11:34:32.540Z,96313.65
2019-04-11T11:37:25.400Z,96306.28
2019-04-11T11:40:14.919Z,96315.84
2019-04-11T11:43:01.046Z,96308.65
2019-04-11T11:45:54.638Z,96316.41
2019-04-11T11:48:54.050Z,96322.59
2019-04-11T11:51:35.422Z,96322.19
2019-04-11T11:54:23.989Z,96309.86
2019-04-11T11:56:54.122Z,96320.08
2019-04-11T11:59:41.147Z,96322.13
2019-04-11T12:02:21.111Z,96330.95
2019-04-11T12:05:02.484Z,96323.97
2019-04-11T12:07:37.787Z,96319.95
2019-04-11T12:10:37.515Z,96319.48
2019-04-11T12:13:39.434Z,96318.02
2019-04-11T12:16:26.537Z,96323.41
2019-04-11T12:19:02.681Z,96319.94
2019-04-11T12:21:32.185Z,96313.48
2019-04-11T12:24:32.408Z,96318.03
2019-04-11T12:27:18.711Z,96321.28
2019-04-11T12:30:08.678Z,96319.09
2019-04-11T12:32:38.962Z,96324.05
2019-04-11T12:35:19.902Z,96325.98
2019-04-11T12:37:53.368Z,96322.75
2019-04-11T12:40:41.701Z,96332.12
2019-04-11T12:43:09.966Z,96326.44
2019-04-11T12:45:55.610Z,96326.52
2019-04-11T12:48:31.105Z,96315.45
2019-04-11T12:51:17.003Z,96323.19
2019-04-11T12:53:47.159Z,96318.03
2019-04-11T12:56:34.193Z,96314.20
2019-04-11T12:59:09.343Z,96319.80
2019-04-11T13:01:56.614Z,96320.61
2019-04-11T13:04:36.430Z,96329.56
2019-04-11T13:07:23.677Z,96326.62
2019-04-11T13:09:53.630Z,96326.02
2019-04-11T13:12:47.024Z,96326.16
2019-04-11T13:15:50.798Z,96329.25
2019-04-11T13:18:46.465Z,96334.77
2019-04-11T13:21:36.423Z,96330.56
2019-04-11T13:24:27.177Z,96327.59
2019-04-11T13:27:13.444Z,96331.02
2019-04-11T13:30:03.816Z,96331.05
2019-04-11T13:32:46.854Z,96329.73
2019-04-11T13:35:36.692Z,96330.38
2019-04-11T13:38:07.269Z,96330.11
2019-04-11T13:40:52.974Z,96330.11
2019-04-11T13:43:39.307Z,96335.42
2019-04-11T13:46:29.002Z,96333.64
2019-04-11T13:49:17.211Z,96336.14
2019-04-11T13:52:00.559Z,96332.80
2019-04-11T13:54:40.872Z,96334.43
2019-04-11T13:57:26.816Z,96333.87
2019-04-11T14:00:13.189Z,96334.23
2019-04-11T14:03:06.387Z,96336.70
2019-04-11T14:05:35.973Z,96338.39
2019-04-11T14:08:03.596Z,96336.02
2019-04-11T14:10:32.936Z,96338.03
2019-04-11T14:13:03.024Z,96338.13
2019-04-11T14:15:31.501Z,96335.77
2019-04-11T14:18:17.104Z,96334.27
2019-04-11T14:20:48.721Z,96335.46
2019-04-11T14:23:35.625Z,96331.17
2019-04-11T14:26:18.067Z,96335.21
2019-04-11T14:29:20.625Z,96331.70
2019-04-11T14:32:13.304Z,96339.66
2019-04-11T14:34:59.306Z,96331.10
2019-04-11T14:37:44.147Z,96331.22
2019-04-11T14:40:30.123Z,96335.02
2019-04-11T14:43:16.769Z,96331.61
2019-04-11T14:46:15.935Z,96338.88
2019-04-11T14:48:49.235Z,96339.16
2019-04-11T14:51:46.401Z,96341.69
2019-04-11T14:54:18.290Z,96341.55
2019-04-11T14:56:54.653Z,96341.25
2019-04-11T14:59:25.556Z,96347.12
2019-04-11T15:02:01.203Z,96344.42
2019-04-11T15:04:47.186Z,96338.05
2019-04-11T15:07:15.666Z,96344.72
2019-04-11T15:10:09.311Z,96343.97
2019-04-11T15:12:36.971Z,96347.45
2019-04-11T15:15:24.524Z,96344.62
2019-04-11T15:17:56.068Z,96348.13
2019-04-11T15:20:54.092Z,96348.15
2019-04-11T15:23:41.869Z,96339.94
2019-04-11T15:26:38.895Z,96344.95
2019-04-11T15:29:18.119Z,96343.11
2019-04-11T15:32:04.896Z,96343.23
2019-04-11T15:34:47.473Z,96338.46
2019-04-11T15:37:46.894Z,96343.49
2019-04-11T15:40:24.510Z,96349.55
2019-04-11T15:43:11.765Z,96350.54
2019-04-11T15:45:49.138Z,96348.73
2019-04-11T15:48:39.406Z,96350.05
2019-04-11T15:51:28.724Z,96352.27
2019-04-11T15:54:28.015Z,96355.03
2019-04-11T15:56:59.502Z,96362.80
2019-04-11T15:59:55.802Z,96371.23
2019-04-11T16:02:42.988Z,96363.82
2019-04-11T16:05:48.269Z,96363.99
2019-04-11T16:08:54.192Z,96363.33
2019-04-11T16:11:53.376Z,96364.09
2019-04-11T16:14:32.964Z,96368.89
2019-04-11T16:17:25.850Z,96364.56
2019-04-11T16:20:00.349Z,96371.70
2019-04-11T16:22:55.462Z,96368.95
2019-04-11T16:25:23.978Z,96371.52
2019-04-11T16:28:11.011Z,96372.13
2019-04-11T16:30:45.984Z,96371.21
2019-04-11T16:33:33.490Z,96371.58
2019-04-11T16:36:27.260Z,96375.86
2019-04-11T16:39:20.686Z,96373.08
2019-04-11T16:42:00.693Z,96383.97
2019-04-11T16:44:47.977Z,96380.91
2019-04-11T16:47:23.684Z,96375.47
2019-04-11T16:49:56.775Z,96377.73
2019-04-11T16:52:23.152Z,96378.92
2019-04-11T16:54:51.004Z,96376.14
2019-04-11T16:57:20.066Z,96382.78
2019-04-11T16:59:49.765Z,96387.64
2019-04-11T17:02:17.653Z,96384.80
2019-04-11T17:04:45.603Z,96385.23
2019-04-11T17:07:32.957Z,96386.55
2019-04-11T17:10:00.728Z,96387.22
2019-04-11T17:12:29.136Z,96387.30
2019-04-11T17:14:57.099Z,96387.42
2019-04-11T17:17:26.366Z,96384.52
2019-04-11T17:19:53.944Z,96391.30
2019-04-11T17:22:22.515Z,96391.50
2019-04-11T17:24:50.021Z,96385.02
2019-04-11T17:27:17.942Z,96390.44
2019-04-11T17:29:45.612Z,96393.64
2019-04-11T17:32:14.049Z,96392.94
2019-04-11T17:34:42.680Z,96395.15
2019-04-11T17:37:10.210Z,96397.56
2019-04-11T17:39:37.799Z,96397.75
2019-04-11T17:42:05.651Z,96405.80
2019-04-11T17:44:35.496Z,96405.16
2019-04-11T17:47:03.092Z,96404.77
2019-04-11T17:49:31.532Z,96415.95
2019-04-11T17:51:59.152Z,96410.39
2019-04-11T17:54:26.635Z,96420.67
2019-04-11T17:56:54.867Z,96424.80
2019-04-11T17:59:27.995Z,96419.72
2019-04-11T18:01:53.002Z,96425.28
2019-04-11T18:04:20.982Z,96429.59
2019-04-11T18:06:49.008Z,96435.05
2019-04-11T18:09:17.089Z,96438.97
2019-04-11T18:11:45.093Z,96445.66
2019-04-11T18:14:13.424Z,96445.94
2019-04-11T18:16:41.793Z,96446.87
2019-04-11T18:19:09.966Z,96443.08
2019-04-11T18:21:37.709Z,96449.67
2019-04-11T18:24:06.996Z,96452.30
2019-04-11T18:26:35.620Z,96451.48
2019-04-11T18:29:03.721Z,96460.21
2019-04-11T18:31:31.383Z,96461.97
2019-04-11T18:34:01.596Z,96457.59
2019-04-11T18:36:31.793Z,96462.11
2019-04-11T18:39:02.036Z,96460.45
2019-04-11T18:41:28.234Z,96477.26
2019-04-11T18:43:56.342Z,96474.28
2019-04-11T18:46:24.314Z,96472.87
2019-04-11T18:48:54.358Z,96480.97
2019-04-11T18:51:23.218Z,96479.42
2019-04-11T18:53:51.065Z,96488.24
2019-04-11T18:56:19.998Z,96489.81
2019-04-11T18:58:47.834Z,96485.63
2019-04-11T19:01:18.027Z,96499.81
2019-04-11T19:03:46.156Z,96499.69
2019-04-11T19:06:14.155Z,96499.72
2019-04-11T19:08:43.505Z,96494.92
2019-04-11T19:11:15.427Z,96507.42
2019-04-11T19:13:41.608Z,96508.39
2019-04-11T19:16:10.332Z,96512.08
2019-04-11T19:18:38.759Z,96509.33
2019-04-11T19:21:07.683Z,96510.05
2019-04-11T19:23:36.664Z,96512.41
2019-04-11T19:26:05.551Z,96512.87
2019-04-11T19:28:33.625Z,96519.69
2019-04-11T19:31:01.700Z,96512.76
2019-04-11T19:33:29.214Z,96516.45
2019-04-11T19:35:57.415Z,96515.52
2019-04-11T19:38:28.628Z,96515.97
2019-04-11T19:40:56.741Z,96514.77
2019-04-11T19:43:24.402Z,96514.18
2019-04-11T19:45:52.616Z,96518.01
2019-04-11T19:48:22.699Z,96518.59
2019-04-11T19:50:50.810Z,96518.70
2019-04-11T19:53:19.216Z,96519.40
2019-04-11T19:56:12.815Z,96513.20
2019-04-11T19:58:40.235Z,96514.52
2019-04-11T20:01:08.009Z,96509.02
2019-04-11T20:03:36.580Z,96506.77
2019-04-11T20:06:04.484Z,96504.86
2019-04-11T20:08:32.414Z,96511.40
2019-04-11T20:11:01.431Z,96508.60
2019-04-11T20:13:31.946Z,96507.92
2019-04-11T20:15:59.573Z,96510.23
2019-04-11T20:18:27.271Z,96514.31
2019-04-11T20:20:55.350Z,96511.92
2019-04-11T20:23:23.020Z,96508.57
2019-04-11T20:25:50.878Z,96510.23
2019-04-11T20:28:19.950Z,96506.53
2019-04-11T20:30:48.153Z,96517.86
2019-04-11T20:33:26.556Z,96521.02
2019-04-11T20:35:47.097Z,96520.66
2019-04-11T20:38:16.195Z,96522.84
2019-04-11T20:40:44.689Z,96525.23
2019-04-11T20:43:13.000Z,96519.70
2019-04-11T20:45:41.661Z,96524.23
2019-04-11T20:48:09.305Z,96521.84
2019-04-11T20:50:36.903Z,96512.65
2019-04-11T20:53:12.733Z,96529.52
2019-04-11T20:55:39.016Z,96522.98
2019-04-11T20:58:04.919Z,96523.33
2019-04-11T21:00:33.154Z,96528.21
2019-04-11T21:03:01.345Z,96528.88
2019-04-11T21:05:30.981Z,96528.13
2019-04-11T21:08:02.639Z,96524.73
2019-04-11T21:10:28.056Z,96525.59
2019-04-11T21:12:56.705Z,96525.34
2019-04-11T21:15:25.061Z,96522.25
2019-04-11T21:17:53.667Z,96526.78
2019-04-11T21:20:23.871Z,96526.78
2019-04-11T21:22:53.914Z,96527.82
2019-04-11T21:25:21.413Z,96529.88
2019-04-11T21:27:49.360Z,96524.90
2019-04-11T21:30:17.071Z,96529.78
2019-04-11T21:32:44.573Z,96529.82
2019-04-11T21:35:13.228Z,96531.35
2019-04-11T21:37:42.535Z,96529.73
2019-04-11T21:40:10.252Z,96540.45
2019-04-11T21:42:37.855Z,96533.17
2019-04-11T21:45:06.866Z,96532.13
2019-04-11T21:47:37.168Z,96530.11
2019-04-11T21:50:09.068Z,96541.16
2019-04-11T21:52:35.413Z,96545.11
2019-04-11T21:55:03.399Z,96539.63
2019-04-11T21:57:31.195Z,96532.60
2019-04-11T22:00:01.466Z,96539.14
2019-04-11T22:02:31.858Z,96536.49
2019-04-11T22:04:59.611Z,96530.20
2019-04-11T22:07:31.004Z,96537.58
2019-04-11T22:10:00.291Z,96527.69
2019-04-11T22:12:29.362Z,96523.63
2019-04-11T22:14:57.208Z,96531.48
2019-04-11T22:17:25.536Z,96534.80
2019-04-11T22:19:53.273Z,96539.41
2019-04-11T22:22:20.858Z,96538.20
2019-04-11T22:24:48.811Z,96542.73
2019-04-11T22:27:16.715Z,96535.42
2019-04-11T22:29:44.791Z,96536.10
2019-04-11T22:32:12.300Z,96536.20
2019-04-11T22:34:44.060Z,96543.34
2019-04-11T22:37:11.594Z,96542.81
2019-04-11T22:39:40.109Z,96542.59
2019-04-11T22:42:08.604Z,96539.59
2019-04-11T22:44:37.934Z,96543.94
2019-04-11T22:47:08.021Z,96545.84
2019-04-11T22:49:36.880Z,96547.02
2019-04-11T22:52:06.058Z,96538.63
2019-04-11T22:54:33.548Z,96538.63
2019-04-11T22:57:01.076Z,96540.63
2019-04-11T22:59:28.657Z,96546.16
2019-04-11T23:02:02.318Z,96547.80
2019-04-11T23:04:29.998Z,96540.16
2019-04-11T23:06:57.598Z,96548.22
2019-04-11T23:09:27.374Z,96546.41
2019-04-11T23:11:55.342Z,96550.27
2019-04-11T23:14:24.578Z,96550.48
2019-04-11T23:16:52.028Z,96546.69
2019-04-11T23:19:19.655Z,96550.69
2019-04-11T23:21:47.207Z,96551.64
2019-04-11T23:24:15.035Z,96546.75
2019-04-11T23:26:43.352Z,96544.81
2019-04-11T23:29:10.868Z,96549.66
2019-04-11T23:31:39.013Z,96552.12
2019-04-11T23:34:07.181Z,96544.13
2019-04-11T23:36:34.641Z,96544.13
2019-04-11T23:39:05.043Z,96550.39
2019-04-11T23:41:33.462Z,96551.81
2019-04-11T23:44:00.831Z,96543.59
2019-04-11T23:46:28.465Z,96553.56
2019-04-11T23:48:56.078Z,96557.72
2019-04-11T23:51:26.349Z,96555.81
2019-04-11T23:53:53.812Z,96549.02
2019-04-11T23:56:21.364Z,96552.31
2019-04-11T23:58:48.686Z,96555.98
